Time;durP1;ratioP1;P1;durP2;ratioP2;P2;SDS_P1;SDS_P2;PMS_P1;PMS_P2;Temp;Humidity;BMP_temperature;BMP_pressure;BME280_temperature;BME280_humidity;BME280_pressure;Samples;Min_cycle;Max_cycle;Signal;HPM_P1;HPM_P2
2021/12/18 00:02:18;;;;;;;10.70;6.53;;;2.70;96.30;;;;;;4862464;29;20270;-79
2021/12/18 00:04:44;;;;;;;14.23;7.60;;;2.70;96.30;;;;;;4862974;29;20445;-79
2021/12/18 00:07:10;;;;;;;12.33;6.90;;;2.80;96.30;;;;;;4861015;29;20551;-79
2021/12/18 00:09:35;;;;;;;7.33;6.30;;;2.70;96.30;;;;;;4861246;29;20191;-79
2021/12/18 00:12:02;;;;;;;9.93;6.43;;;2.70;96.30;;;;;;4861163;29;20205;-79
2021/12/18 00:14:28;;;;;;;10.10;7.07;;;2.60;96.30;;;;;;4861163;29;20186;-79
2021/12/18 00:16:54;;;;;;;13.60;7.70;;;2.60;96.30;;;;;;4861205;29;20419;-80
2021/12/18 00:19:25;;;;;;;8.70;6.50;;;2.60;96.30;;;;;;4861043;29;20181;-79
2021/12/18 00:21:52;;;;;;;11.83;6.80;;;2.60;96.30;;;;;;4862268;29;20743;-79
2021/12/18 00:24:19;;;;;;;10.07;6.50;;;2.70;96.30;;;;;;4862043;29;20841;-79
2021/12/18 00:26:44;;;;;;;8.10;6.20;;;2.60;96.30;;;;;;4861556;29;20497;-79
2021/12/18 00:29:10;;;;;;;9.60;6.23;;;2.60;96.30;;;;;;4861682;29;20480;-79
2021/12/18 00:31:35;;;;;;;9.20;6.97;;;2.60;96.30;;;;;;4860862;29;20230;-79
2021/12/18 00:34:01;;;;;;;11.33;7.77;;;2.60;96.30;;;;;;4862126;29;20224;-79
2021/12/18 00:36:26;;;;;;;11.63;7.50;;;2.60;96.30;;;;;;4860471;29;20179;-79
2021/12/18 00:38:52;;;;;;;11.60;7.00;;;2.60;96.30;;;;;;4860730;29;20657;-79
2021/12/18 00:44:02;;;;;;;16.10;7.77;;;2.60;96.30;;;;;;4861980;29;20684;-80
2021/12/18 00:46:40;;;;;;;10.10;7.57;;;2.60;96.30;;;;;;4861422;29;20511;-79
2021/12/18 00:49:09;;;;;;;8.80;6.40;;;2.60;96.30;;;;;;4860554;29;20491;-79
2021/12/18 00:51:35;;;;;;;11.83;6.90;;;2.60;96.30;;;;;;4860946;29;20451;-79
2021/12/18 00:54:00;;;;;;;11.60;7.10;;;2.60;96.30;;;;;;4873251;29;20466;-79
2021/12/18 00:56:26;;;;;;;14.10;7.70;;;2.60;96.30;;;;;;4865832;29;20186;-79
2021/12/18 00:58:52;;;;;;;13.60;8.37;;;2.60;96.30;;;;;;4862100;29;20174;-79
2021/12/18 05:02:05;;;;;;;9.20;6.20;;;2.60;96.30;;;;;;5077909;23;20493;-78
2021/12/18 05:04:31;;;;;;;9.50;7.20;;;2.60;96.30;;;;;;4877440;29;20441;-78
2021/12/18 05:06:56;;;;;;;9.93;6.80;;;2.60;96.30;;;;;;4878195;29;20181;-78
2021/12/18 05:09:22;;;;;;;9.67;6.10;;;2.60;96.30;;;;;;4877153;29;20549;-78
2021/12/18 05:11:48;;;;;;;11.63;8.60;;;2.60;96.30;;;;;;4878594;29;20209;-78
2021/12/18 05:14:14;;;;;;;9.33;6.40;;;2.60;96.30;;;;;;4877852;29;20591;-78
2021/12/18 05:16:39;;;;;;;9.20;6.13;;;2.60;96.30;;;;;;4879069;29;20423;-78
2021/12/18 05:19:05;;;;;;;8.10;5.63;;;2.60;96.30;;;;;;4882010;29;20185;-79
2021/12/18 05:21:31;;;;;;;6.50;5.07;;;2.60;96.30;;;;;;4877119;29;20269;-79
2021/12/18 05:23:56;;;;;;;7.87;5.90;;;2.60;96.30;;;;;;4877343;29;20221;-79
2021/12/18 05:26:22;;;;;;;9.30;6.30;;;2.60;96.30;;;;;;4877932;29;20193;-79
2021/12/18 05:28:47;;;;;;;6.20;4.50;;;2.60;96.30;;;;;;4878437;29;20241;-79
2021/12/18 05:31:16;;;;;;;6.10;3.93;;;2.60;96.30;;;;;;4876858;29;20240;-78
2021/12/18 05:33:45;;;;;;;6.30;4.87;;;2.60;96.30;;;;;;4876971;29;20217;-79
2021/12/18 05:36:30;;;;;;;5.83;4.83;;;2.60;96.30;;;;;;4877702;29;20418;-78
2021/12/18 05:38:59;;;;;;;5.87;5.10;;;2.60;96.30;;;;;;4877240;29;20834;-78
2021/12/18 05:41:25;;;;;;;7.67;5.37;;;2.60;96.30;;;;;;4877319;29;20497;-78
2021/12/18 05:43:51;;;;;;;7.73;5.03;;;2.60;96.30;;;;;;4877864;29;20410;-78
2021/12/18 05:46:16;;;;;;;6.60;4.70;;;2.60;96.30;;;;;;4877463;29;20177;-79
2021/12/18 05:48:42;;;;;;;5.97;5.07;;;2.60;96.30;;;;;;4876354;29;20192;-78
2021/12/18 05:51:07;;;;;;;7.70;6.07;;;2.70;96.30;;;;;;4877606;29;20209;-77
2021/12/18 05:53:33;;;;;;;6.30;5.40;;;2.70;96.30;;;;;;4876392;29;20210;-78
2021/12/18 05:55:58;;;;;;;6.20;5.23;;;2.60;96.30;;;;;;4877385;29;20219;-78
2021/12/18 05:58:24;;;;;;;7.20;5.80;;;2.60;96.30;;;;;;4878023;29;20177;-78
2021/12/18 06:00:49;;;;;;;7.40;5.37;;;2.60;96.30;;;;;;4881912;29;20213;-79
2021/12/18 06:03:15;;;;;;;5.43;4.50;;;2.70;96.30;;;;;;4882528;29;20673;-78
2021/12/18 06:05:40;;;;;;;5.83;4.97;;;2.60;96.30;;;;;;4870632;29;20269;-79
2021/12/18 06:08:10;;;;;;;6.10;4.90;;;2.60;96.30;;;;;;4881516;29;20590;-78
2021/12/18 06:10:37;;;;;;;9.00;5.30;;;2.60;96.30;;;;;;4879713;29;20198;-78
2021/12/18 06:13:03;;;;;;;4.93;3.90;;;2.60;96.30;;;;;;4864960;29;20462;-78
2021/12/18 06:15:30;;;;;;;4.73;4.17;;;2.60;96.30;;;;;;4864012;29;20474;-79
2021/12/18 06:17:56;;;;;;;5.53;4.67;;;2.60;96.30;;;;;;4863521;29;20418;-79
2021/12/18 06:20:22;;;;;;;4.90;4.00;;;2.60;96.30;;;;;;4867720;29;20421;-78
2021/12/18 06:22:48;;;;;;;5.83;4.47;;;2.60;96.30;;;;;;4883828;29;20926;-77
2021/12/18 06:25:14;;;;;;;4.77;4.30;;;2.60;96.30;;;;;;4882272;29;20521;-78
2021/12/18 06:27:39;;;;;;;6.27;3.57;;;2.60;96.30;;;;;;4878327;29;20189;-78
2021/12/18 06:30:06;;;;;;;5.40;4.43;;;2.60;96.30;;;;;;4864979;29;20631;-78
2021/12/18 06:32:31;;;;;;;5.33;3.73;;;2.60;96.30;;;;;;4863391;29;20201;-77
2021/12/18 06:34:57;;;;;;;4.73;3.20;;;2.60;96.30;;;;;;4864277;29;20775;-77
2021/12/18 06:37:23;;;;;;;4.83;4.33;;;2.60;96.30;;;;;;4865080;29;20185;-78
2021/12/18 06:39:48;;;;;;;5.73;3.73;;;2.70;96.30;;;;;;4864658;29;20722;-78
2021/12/18 06:42:14;;;;;;;9.03;4.30;;;2.70;96.30;;;;;;4863871;29;20502;-77
2021/12/18 06:44:39;;;;;;;4.77;4.00;;;2.60;96.30;;;;;;4865199;29;20187;-78
2021/12/18 06:47:05;;;;;;;5.27;4.37;;;2.70;96.30;;;;;;4863729;29;20181;-78
2021/12/18 06:49:30;;;;;;;6.93;5.00;;;2.70;96.30;;;;;;4865136;29;20238;-77
2021/12/18 06:51:57;;;;;;;6.07;4.87;;;2.70;96.30;;;;;;4865728;29;20603;-78
2021/12/18 06:54:23;;;;;;;5.77;4.80;;;2.60;96.30;;;;;;4882523;29;20252;-78
2021/12/18 06:56:49;;;;;;;5.07;4.57;;;2.60;96.30;;;;;;4867396;29;20430;-79
2021/12/18 06:59:15;;;;;;;5.60;4.63;;;2.60;96.30;;;;;;4863886;29;20179;-78
2021/12/18 07:01:40;;;;;;;6.17;5.10;;;2.60;96.30;;;;;;4863822;29;20470;-78
2021/12/18 07:04:06;;;;;;;8.63;4.80;;;2.60;96.30;;;;;;4865079;29;20189;-78
2021/12/18 07:06:31;;;;;;;7.63;6.37;;;2.60;96.30;;;;;;4865032;29;20532;-78
2021/12/18 07:08:57;;;;;;;9.00;6.00;;;2.60;96.30;;;;;;4863866;29;20186;-78
2021/12/18 07:11:24;;;;;;;7.00;5.30;;;2.60;96.30;;;;;;4859869;29;20208;-78
2021/12/18 07:13:49;;;;;;;7.33;5.57;;;2.60;96.30;;;;;;4862029;29;20647;-77
2021/12/18 07:16:15;;;;;;;6.43;5.73;;;2.60;96.30;;;;;;4860948;29;20521;-77
2021/12/18 07:18:41;;;;;;;8.40;6.40;;;2.60;96.30;;;;;;4860680;29;20269;-78
2021/12/18 07:21:07;;;;;;;10.10;6.37;;;2.60;96.30;;;;;;4861927;29;20228;-78
2021/12/18 07:23:33;;;;;;;11.87;6.80;;;2.60;96.30;;;;;;4860586;29;20459;-77
2021/12/18 07:25:58;;;;;;;9.50;6.73;;;2.70;96.30;;;;;;4860742;29;20641;-79
2021/12/18 07:28:24;;;;;;;9.10;6.80;;;2.60;96.30;;;;;;4861385;29;20186;-78
2021/12/18 07:30:49;;;;;;;6.07;4.90;;;2.70;96.30;;;;;;4862010;29;20570;-78
2021/12/18 07:33:15;;;;;;;7.10;5.23;;;2.70;96.30;;;;;;4860650;29;20202;-76
2021/12/18 07:35:41;;;;;;;8.50;4.80;;;2.70;96.30;;;;;;4861839;29;20213;-75
2021/12/18 07:38:07;;;;;;;9.00;5.63;;;2.60;96.30;;;;;;4860839;29;20179;-77
2021/12/18 07:40:33;;;;;;;5.00;3.80;;;2.70;96.30;;;;;;4861731;29;20458;-74
2021/12/18 07:42:59;;;;;;;3.97;3.40;;;2.70;96.30;;;;;;4876613;29;20445;-77
2021/12/18 07:45:25;;;;;;;6.10;3.67;;;2.70;96.30;;;;;;4885672;29;20462;-81
2021/12/18 07:47:50;;;;;;;6.20;4.23;;;2.80;96.30;;;;;;4886665;29;20204;-77
2021/12/18 07:50:20;;;;;;;6.57;4.17;;;2.70;96.30;;;;;;4885272;29;20181;-77
2021/12/18 07:52:47;;;;;;;7.63;4.00;;;2.70;96.30;;;;;;4891438;29;20212;-77
2021/12/18 07:55:12;;;;;;;5.37;3.60;;;2.80;96.30;;;;;;4886221;29;20509;-77
2021/12/18 07:57:38;;;;;;;5.50;4.27;;;2.80;96.30;;;;;;4883426;29;20565;-77
2021/12/18 08:00:06;;;;;;;5.13;4.13;;;2.80;96.30;;;;;;4895494;29;20185;-76
2021/12/18 08:02:32;;;;;;;4.97;3.80;;;2.80;96.30;;;;;;4889068;29;20554;-78
2021/12/18 08:04:57;;;;;;;4.93;4.43;;;2.80;96.30;;;;;;4887125;29;20989;-79
2021/12/18 08:07:23;;;;;;;9.63;5.87;;;2.80;96.30;;;;;;4884721;29;20195;-78
2021/12/18 08:09:48;;;;;;;10.00;6.37;;;2.80;96.30;;;;;;4881446;29;20250;-77
2021/12/18 08:12:14;;;;;;;9.03;6.33;;;2.80;96.30;;;;;;4878391;29;20206;-77
2021/12/18 08:14:39;;;;;;;10.83;7.53;;;2.80;96.30;;;;;;4879661;29;20559;-77
2021/12/18 08:17:05;;;;;;;10.73;7.13;;;2.80;96.30;;;;;;4879884;29;20580;-77
2021/12/18 08:19:30;;;;;;;12.37;8.10;;;2.80;96.30;;;;;;4893904;29;20181;-77
2021/12/18 08:21:56;;;;;;;11.57;8.53;;;2.80;96.30;;;;;;4897938;29;20197;-76
2021/12/18 08:24:21;;;;;;;16.17;10.70;;;2.90;96.30;;;;;;4898314;29;20531;-77
2021/12/18 08:26:47;;;;;;;16.83;10.37;;;2.90;96.30;;;;;;4898113;29;20221;-77
2021/12/18 08:29:12;;;;;;;16.23;10.30;;;2.90;96.30;;;;;;4896966;29;20185;-77
2021/12/18 08:31:38;;;;;;;11.57;9.27;;;2.90;96.30;;;;;;4898034;29;20673;-77
2021/12/18 08:34:03;;;;;;;13.30;8.50;;;2.90;96.30;;;;;;4897947;29;20337;-77
2021/12/18 08:36:29;;;;;;;10.43;8.10;;;3.00;96.30;;;;;;4897895;29;20192;-77
2021/12/18 08:38:54;;;;;;;16.43;8.20;;;3.10;96.30;;;;;;4898043;29;20181;-76
2021/12/18 08:41:21;;;;;;;13.60;10.17;;;3.00;96.30;;;;;;4896689;29;20207;-77
2021/12/18 08:43:48;;;;;;;12.50;9.40;;;3.00;96.30;;;;;;4898008;29;20177;-76
2021/12/18 08:46:14;;;;;;;11.60;9.40;;;3.10;96.30;;;;;;4897757;29;20437;-77
2021/12/18 08:48:39;;;;;;;13.90;8.60;;;3.10;96.30;;;;;;4897802;29;20421;-77
2021/12/18 08:51:05;;;;;;;9.83;8.57;;;3.10;96.30;;;;;;4896480;29;20215;-76
2021/12/18 08:53:30;;;;;;;11.10;8.83;;;3.10;96.30;;;;;;4897690;29;20241;-77
2021/12/18 08:55:56;;;;;;;15.30;9.73;;;3.20;96.30;;;;;;4897438;29;20192;-77
2021/12/18 08:58:21;;;;;;;13.47;8.80;;;3.20;96.30;;;;;;4896433;29;20185;-77
2021/12/18 09:00:47;;;;;;;11.17;8.77;;;3.20;96.30;;;;;;4897443;29;20213;-77
2021/12/18 09:03:12;;;;;;;11.60;6.50;;;3.20;96.30;;;;;;4897603;29;20192;-76
2021/12/18 09:05:38;;;;;;;11.07;7.60;;;3.30;96.30;;;;;;4897491;29;20185;-77
2021/12/18 09:08:03;;;;;;;8.80;7.40;;;3.30;96.30;;;;;;4897458;29;20264;-77
2021/12/18 09:10:29;;;;;;;8.67;6.30;;;3.30;96.30;;;;;;4892274;29;20222;-77
2021/12/18 09:12:55;;;;;;;9.77;7.83;;;3.30;96.30;;;;;;4878775;29;20342;-77
2021/12/18 09:15:21;;;;;;;9.40;5.97;;;3.30;96.30;;;;;;4878673;29;20174;-77
2021/12/18 09:17:47;;;;;;;6.70;5.83;;;3.40;96.30;;;;;;4878519;29;20433;-77
2021/12/18 09:20:12;;;;;;;8.50;7.17;;;3.40;96.30;;;;;;4878684;29;20784;-77
2021/12/18 09:22:38;;;;;;;8.87;6.60;;;3.40;96.30;;;;;;4877330;29;20186;-77
2021/12/18 09:25:05;;;;;;;6.67;5.97;;;3.50;96.30;;;;;;4878694;29;20781;-77
2021/12/18 09:27:32;;;;;;;8.20;6.50;;;3.50;96.30;;;;;;4878380;29;20203;-77
2021/12/18 09:29:58;;;;;;;8.77;6.77;;;3.50;96.30;;;;;;4877267;29;21044;-77
2021/12/18 09:32:24;;;;;;;8.53;6.90;;;3.50;96.30;;;;;;4878297;29;20440;-77
2021/12/18 09:34:49;;;;;;;9.27;7.13;;;3.60;96.30;;;;;;4877836;29;20257;-77
2021/12/18 09:37:15;;;;;;;9.70;5.47;;;3.70;96.30;;;;;;4876930;29;20186;-76
2021/12/18 09:39:40;;;;;;;6.27;5.30;;;3.70;96.30;;;;;;4878388;29;20220;-77
2021/12/18 09:42:06;;;;;;;9.50;5.70;;;3.70;96.30;;;;;;4876995;29;20258;-77
2021/12/18 09:44:34;;;;;;;9.07;4.73;;;3.80;96.30;;;;;;4878361;29;20173;-76
2021/12/18 09:47:00;;;;;;;6.97;5.23;;;3.90;96.30;;;;;;4878032;29;20666;-76
2021/12/18 09:49:26;;;;;;;6.10;4.67;;;3.80;96.30;;;;;;4877042;29;20418;-76
2021/12/18 09:51:52;;;;;;;5.30;4.50;;;3.80;96.30;;;;;;4878184;29;21017;-76
2021/12/18 09:54:19;;;;;;;5.93;4.47;;;3.80;96.30;;;;;;4877132;29;20593;-76
2021/12/18 09:56:45;;;;;;;8.87;4.33;;;3.80;96.30;;;;;;4878254;29;20414;-76
2021/12/18 09:59:11;;;;;;;8.40;3.87;;;3.80;96.30;;;;;;4878246;29;20973;-76
2021/12/18 10:01:36;;;;;;;4.60;3.70;;;3.90;96.30;;;;;;4877926;29;20214;-76
2021/12/18 10:04:04;;;;;;;5.70;3.63;;;4.00;96.30;;;;;;4878367;29;20947;-77
2021/12/18 10:06:41;;;;;;;5.20;3.40;;;4.00;96.30;;;;;;4877155;29;20186;-76
2021/12/18 10:09:28;;;;;;;4.20;3.67;;;4.00;96.30;;;;;;4878942;29;20403;-77
2021/12/18 10:11:57;;;;;;;4.03;3.33;;;3.90;96.30;;;;;;4878411;29;20442;-77
2021/12/18 10:14:54;;;;;;;5.00;4.07;;;3.90;96.30;;;;;;4878432;29;20481;-77
2021/12/18 10:17:26;;;;;;;5.23;4.17;;;4.00;96.30;;;;;;4870039;29;20445;-77
2021/12/18 10:19:55;;;;;;;3.30;3.00;;;4.00;96.30;;;;;;4878207;29;20414;-77
2021/12/18 10:22:21;;;;;;;3.30;2.70;;;4.10;96.30;;;;;;4876878;29;20442;-77
2021/12/18 10:25:05;;;;;;;4.67;3.57;;;4.30;96.30;;;;;;4878038;29;20923;-77
2021/12/18 10:27:31;;;;;;;4.37;3.70;;;4.10;96.30;;;;;;4877887;29;20261;-77
2021/12/18 10:30:20;;;;;;;4.00;3.17;;;4.00;96.30;;;;;;4878226;29;20453;-78
2021/12/18 10:33:06;;;;;;;3.03;2.63;;;4.00;96.30;;;;;;4877372;29;20233;-77
2021/12/18 10:35:40;;;;;;;3.47;2.90;;;4.00;96.30;;;;;;4876387;29;20937;-78
2021/12/18 10:38:06;;;;;;;3.43;2.93;;;4.00;96.30;;;;;;4878295;29;20490;-79
2021/12/18 10:40:43;;;;;;;2.83;2.10;;;4.10;96.30;;;;;;4884220;29;20469;-78
2021/12/18 10:43:09;;;;;;;4.10;3.30;;;3.90;96.30;;;;;;4884460;29;20198;-78
2021/12/18 10:45:35;;;;;;;3.63;3.30;;;3.90;96.30;;;;;;4886825;29;20418;-78
2021/12/18 10:48:05;;;;;;;5.50;2.90;;;4.00;96.30;;;;;;4885112;29;20182;-78
2021/12/18 10:50:46;;;;;;;4.20;2.67;;;4.00;96.30;;;;;;4880801;29;20536;-79
2021/12/18 10:53:24;;;;;;;3.47;3.00;;;4.00;96.30;;;;;;4890424;29;20460;-78
2021/12/18 10:55:53;;;;;;;3.70;2.90;;;3.90;96.30;;;;;;4878431;29;20502;-78
2021/12/18 10:58:27;;;;;;;3.30;3.00;;;3.80;96.30;;;;;;4888579;29;20441;-77
2021/12/18 11:00:57;;;;;;;2.80;2.27;;;3.70;96.30;;;;;;4881717;29;20458;-79
2021/12/18 11:03:25;;;;;;;3.90;2.60;;;3.60;96.30;;;;;;4887520;29;20443;-79
2021/12/18 11:06:16;;;;;;;2.90;2.60;;;3.60;96.30;;;;;;4888932;29;20963;-78
2021/12/18 11:08:59;;;;;;;2.47;2.13;;;3.60;96.30;;;;;;4886077;29;20419;-78
2021/12/18 11:14:14;;;;;;;2.97;2.50;;;3.70;96.30;;;;;;4887117;29;20468;-78
2021/12/18 11:16:41;;;;;;;4.83;3.00;;;3.70;96.30;;;;;;4887878;29;20472;-77
2021/12/18 11:19:13;;;;;;;3.30;2.77;;;3.60;96.30;;;;;;4885153;29;20441;-78
2021/12/18 11:21:41;;;;;;;2.97;2.67;;;3.60;96.30;;;;;;4890333;29;20513;-79
2021/12/18 11:24:08;;;;;;;2.20;1.97;;;3.70;96.30;;;;;;4887879;29;20462;-78
2021/12/18 11:26:41;;;;;;;3.20;2.53;;;3.70;96.30;;;;;;4887920;29;20432;-78
2021/12/18 11:29:13;;;;;;;3.53;2.60;;;3.80;96.30;;;;;;4886805;29;20429;-77
2021/12/18 11:31:40;;;;;;;3.17;2.77;;;3.80;96.30;;;;;;4885267;29;20456;-77
2021/12/18 11:34:06;;;;;;;3.53;3.20;;;3.80;96.30;;;;;;4887349;29;20462;-78
2021/12/18 11:36:32;;;;;;;5.13;3.00;;;3.70;96.30;;;;;;4886568;29;20486;-79
2021/12/18 11:38:59;;;;;;;3.20;2.87;;;3.70;96.30;;;;;;4894055;29;20182;-78
2021/12/18 11:41:25;;;;;;;3.20;2.33;;;3.70;96.30;;;;;;4893188;29;20954;-78
2021/12/18 11:43:50;;;;;;;2.37;2.17;;;3.70;96.30;;;;;;4894366;29;20430;-79
2021/12/18 11:46:34;;;;;;;4.13;2.23;;;3.70;96.30;;;;;;4888049;29;20216;-78
2021/12/18 11:49:10;;;;;;;2.10;1.90;;;3.90;96.30;;;;;;4883745;29;20719;-78
2021/12/18 11:51:37;;;;;;;2.37;2.17;;;3.90;96.30;;;;;;4888424;29;20480;-78
2021/12/18 11:54:23;;;;;;;2.97;2.60;;;3.90;96.30;;;;;;4889992;29;20476;-78
2021/12/18 11:56:50;;;;;;;3.00;2.70;;;4.00;96.30;;;;;;4885773;29;20466;-78
2021/12/18 11:59:42;;;;;;;2.67;2.43;;;3.80;96.30;;;;;;4885033;29;20478;-78
2021/12/18 12:02:11;;;;;;;3.50;2.73;;;3.80;96.30;;;;;;4888517;29;20890;-79
2021/12/18 12:04:56;;;;;;;6.80;2.97;;;3.70;96.30;;;;;;4886002;29;20430;-78
2021/12/18 12:07:23;;;;;;;3.10;2.47;;;3.60;96.30;;;;;;4885086;29;20433;-78
2021/12/18 12:10:34;;;;;;;3.37;2.53;;;3.60;96.30;;;;;;4887396;29;20471;-78
2021/12/18 12:12:59;;;;;;;3.20;2.90;;;3.70;96.30;;;;;;4887237;29;20462;-78
2021/12/18 12:15:27;;;;;;;3.27;2.73;;;3.70;96.30;;;;;;4883563;29;20546;-79
2021/12/18 12:18:01;;;;;;;3.53;3.23;;;3.70;96.30;;;;;;4884204;29;20170;-78
2021/12/18 12:20:42;;;;;;;4.80;2.90;;;3.70;96.30;;;;;;4882643;29;20641;-77
2021/12/18 12:23:10;;;;;;;4.70;2.90;;;3.70;96.30;;;;;;4886020;29;20409;-77
2021/12/18 12:25:38;;;;;;;2.90;2.60;;;3.50;96.30;;;;;;4885023;29;20903;-77
2021/12/18 12:28:13;;;;;;;3.63;2.93;;;3.60;96.30;;;;;;4886104;29;20429;-76
2021/12/18 12:30:49;;;;;;;3.43;2.70;;;3.60;96.30;;;;;;4882778;29;20444;-77
2021/12/18 12:33:39;;;;;;;4.13;3.10;;;3.50;96.30;;;;;;4883807;29;20802;-78
2021/12/18 12:36:22;;;;;;;3.30;2.93;;;3.50;96.30;;;;;;4899083;29;20438;-78
2021/12/18 12:39:01;;;;;;;3.80;3.10;;;3.50;96.30;;;;;;4878948;29;20573;-77
2021/12/18 12:41:41;;;;;;;4.33;2.90;;;3.50;96.30;;;;;;4881186;29;20451;-77
2021/12/18 12:44:30;;;;;;;6.40;4.47;;;3.60;96.30;;;;;;4881253;29;20432;-78
2021/12/18 12:47:17;;;;;;;5.97;4.13;;;3.60;96.30;;;;;;4881516;29;20465;-77
2021/12/18 12:49:45;;;;;;;5.47;3.93;;;3.50;96.30;;;;;;4896636;29;20762;-78
2021/12/18 12:52:13;;;;;;;6.33;5.20;;;3.40;96.30;;;;;;4896456;29;20441;-78
2021/12/18 12:54:57;;;;;;;6.87;4.27;;;3.50;96.30;;;;;;4881350;29;20465;-78
2021/12/18 12:57:23;;;;;;;5.67;4.23;;;3.40;96.30;;;;;;4877654;29;20415;-77
2021/12/18 12:59:49;;;;;;;5.70;4.57;;;3.30;96.30;;;;;;4878126;29;20509;-78
2021/12/18 13:02:16;;;;;;;6.50;4.67;;;3.10;96.30;;;;;;4878922;29;20296;-79
2021/12/18 13:04:41;;;;;;;4.97;3.80;;;3.10;96.30;;;;;;4877724;29;20438;-78
2021/12/18 13:07:07;;;;;;;5.73;3.80;;;3.00;96.30;;;;;;4877488;29;20429;-78
2021/12/18 13:09:34;;;;;;;8.00;3.87;;;3.00;96.30;;;;;;4877947;29;20173;-78
2021/12/18 13:12:01;;;;;;;3.90;3.20;;;3.00;96.30;;;;;;4878648;29;20458;-78
2021/12/18 13:14:38;;;;;;;4.40;3.67;;;3.00;96.30;;;;;;4877503;29;20841;-78
2021/12/18 13:17:18;;;;;;;6.73;3.20;;;3.10;96.30;;;;;;4878523;29;20402;-79
2021/12/18 13:19:59;;;;;;;5.07;3.70;;;3.10;96.30;;;;;;4880477;29;20473;-78
2021/12/18 13:22:30;;;;;;;6.60;3.90;;;3.10;96.30;;;;;;4878489;29;20991;-79
2021/12/18 13:25:11;;;;;;;4.93;3.50;;;3.10;96.30;;;;;;4878740;29;20398;-78
2021/12/18 13:27:39;;;;;;;5.60;4.17;;;3.10;96.30;;;;;;4878522;29;20465;-78
2021/12/18 13:30:21;;;;;;;5.47;4.17;;;3.10;96.30;;;;;;4877119;29;20437;-78
2021/12/18 13:32:58;;;;;;;5.90;4.40;;;3.00;96.30;;;;;;4877167;29;20420;-78
2021/12/18 13:35:25;;;;;;;7.70;5.60;;;3.00;96.30;;;;;;4878449;29;20903;-78
2021/12/18 13:38:08;;;;;;;6.00;4.80;;;3.00;96.30;;;;;;4876990;29;20471;-77
2021/12/18 13:40:37;;;;;;;6.80;4.97;;;3.00;96.30;;;;;;4878254;29;20433;-78
2021/12/18 13:43:18;;;;;;;6.93;5.07;;;3.00;96.30;;;;;;4878462;29;20497;-77
2021/12/18 13:46:06;;;;;;;7.90;5.40;;;3.10;96.30;;;;;;4876982;29;20429;-78
2021/12/18 13:48:39;;;;;;;6.90;5.40;;;3.10;96.30;;;;;;4880723;29;20434;-78
2021/12/18 13:51:11;;;;;;;6.33;5.63;;;3.10;96.30;;;;;;4883598;29;20449;-77
2021/12/18 13:53:55;;;;;;;7.30;5.70;;;3.10;96.30;;;;;;4892506;29;20457;-78
2021/12/18 13:56:23;;;;;;;6.07;4.90;;;3.10;96.30;;;;;;4883429;29;20791;-78
2021/12/18 13:58:50;;;;;;;7.77;6.07;;;3.00;96.30;;;;;;4896632;29;20424;-78
2021/12/18 14:01:17;;;;;;;9.20;5.57;;;3.00;96.30;;;;;;4890772;29;20493;-79
2021/12/18 14:03:45;;;;;;;9.90;6.37;;;3.00;96.30;;;;;;4881498;29;20433;-78
2021/12/18 14:06:34;;;;;;;8.17;5.40;;;2.90;96.30;;;;;;4879715;29;21913;-79
2021/12/18 14:09:03;;;;;;;7.20;5.47;;;2.90;96.30;;;;;;4876123;29;20421;-79
2021/12/18 14:11:37;;;;;;;9.00;6.00;;;2.90;96.30;;;;;;4882108;29;20461;-78
2021/12/18 14:14:06;;;;;;;8.53;6.13;;;2.80;96.30;;;;;;4864734;29;20471;-78
2021/12/18 14:16:33;;;;;;;7.80;6.03;;;2.80;96.30;;;;;;4857770;29;20944;-77
2021/12/18 14:19:02;;;;;;;6.70;5.50;;;2.70;96.30;;;;;;4872440;29;20461;-77
2021/12/18 14:21:43;;;;;;;7.20;5.70;;;2.70;96.30;;;;;;4883880;29;20441;-78
2021/12/18 14:24:11;;;;;;;6.90;5.27;;;2.70;96.30;;;;;;4891362;29;20430;-77
2021/12/18 14:26:37;;;;;;;7.47;5.20;;;2.70;96.30;;;;;;4891779;29;20516;-77
2021/12/18 14:29:18;;;;;;;6.97;5.00;;;2.70;96.30;;;;;;4895921;29;20599;-77
2021/12/18 14:31:55;;;;;;;5.70;4.47;;;2.70;96.30;;;;;;4868471;29;20453;-77
2021/12/18 14:34:32;;;;;;;5.40;4.47;;;2.70;96.30;;;;;;4878615;29;20924;-77
2021/12/18 14:37:04;;;;;;;3.60;3.20;;;2.70;96.30;;;;;;4888173;29;20445;-77
2021/12/18 14:39:39;;;;;;;3.60;3.30;;;2.70;96.30;;;;;;4881243;29;20764;-77
2021/12/18 14:42:05;;;;;;;4.40;4.00;;;2.70;96.30;;;;;;4880011;29;20528;-77
2021/12/18 14:44:34;;;;;;;5.70;3.90;;;2.70;96.30;;;;;;4880108;29;20509;-78
2021/12/18 14:47:22;;;;;;;4.13;3.50;;;2.60;96.30;;;;;;4898303;29;20208;-78
2021/12/18 14:49:59;;;;;;;3.23;2.93;;;2.60;96.30;;;;;;4884218;29;20426;-78
2021/12/18 14:52:25;;;;;;;3.30;3.00;;;2.60;96.30;;;;;;4879789;29;21132;-78
2021/12/18 14:54:57;;;;;;;3.70;2.63;;;2.60;96.30;;;;;;4881656;29;20461;-78
2021/12/18 14:57:30;;;;;;;5.70;3.80;;;2.70;96.30;;;;;;4883860;29;20521;-78
2021/12/18 15:00:15;;;;;;;4.30;3.10;;;2.70;96.30;;;;;;4883515;29;20470;-76
2021/12/18 15:03:02;;;;;;;3.53;3.03;;;2.70;96.30;;;;;;4880999;29;20434;-76
2021/12/18 15:05:41;;;;;;;3.53;3.13;;;2.70;96.30;;;;;;4884848;29;20434;-76
2021/12/18 15:08:12;;;;;;;3.83;3.43;;;2.70;96.30;;;;;;4884124;29;20425;-77
2021/12/18 15:10:46;;;;;;;3.73;3.00;;;2.70;96.30;;;;;;4881519;29;20497;-76
2021/12/18 15:13:14;;;;;;;3.13;2.50;;;2.70;96.30;;;;;;4886861;29;20999;-77
2021/12/18 15:15:40;;;;;;;4.07;3.00;;;2.70;96.30;;;;;;4887252;29;20498;-78
2021/12/18 15:18:05;;;;;;;3.17;2.80;;;2.70;96.30;;;;;;4885907;29;20434;-78
2021/12/18 15:20:31;;;;;;;4.13;3.13;;;2.70;96.30;;;;;;4882072;29;20542;-76
2021/12/18 15:22:56;;;;;;;6.70;2.80;;;2.70;96.30;;;;;;4879453;29;20193;-77
2021/12/18 15:25:22;;;;;;;3.57;2.60;;;2.70;96.30;;;;;;4887193;29;20653;-77
2021/12/18 15:27:47;;;;;;;4.10;2.47;;;2.80;96.30;;;;;;4883207;29;20178;-77
2021/12/18 15:30:13;;;;;;;4.90;2.40;;;2.80;96.30;;;;;;4888544;29;20178;-77
2021/12/18 15:32:39;;;;;;;2.00;1.90;;;2.80;96.30;;;;;;4883070;29;20192;-77
2021/12/18 15:35:05;;;;;;;3.00;2.20;;;2.80;96.30;;;;;;4884769;29;20219;-77
2021/12/18 15:37:30;;;;;;;3.03;2.37;;;2.80;96.30;;;;;;4886665;29;20186;-77
2021/12/18 15:39:56;;;;;;;2.60;2.17;;;2.80;96.30;;;;;;4883233;29;20536;-77
2021/12/18 15:42:28;;;;;;;2.57;2.37;;;2.90;96.30;;;;;;4886788;29;20197;-77
2021/12/18 15:44:54;;;;;;;2.60;2.30;;;2.80;96.30;;;;;;4885691;29;20198;-78
2021/12/18 15:47:19;;;;;;;2.70;2.50;;;2.80;96.30;;;;;;4882279;29;20429;-76
2021/12/18 15:49:48;;;;;;;3.80;2.60;;;2.80;96.30;;;;;;4879218;29;20264;-77
2021/12/18 15:52:14;;;;;;;3.00;2.57;;;2.80;96.30;;;;;;4898231;29;20252;-77
2021/12/18 15:54:39;;;;;;;3.90;3.20;;;2.90;96.30;;;;;;4895058;29;20460;-78
2021/12/18 15:57:05;;;;;;;2.90;2.47;;;2.90;96.30;;;;;;4881352;29;20433;-77
2021/12/18 15:59:31;;;;;;;2.97;2.50;;;2.90;96.30;;;;;;4880611;29;20174;-77
2021/12/18 16:01:57;;;;;;;3.73;2.47;;;2.90;96.30;;;;;;4881683;29;20717;-78
2021/12/18 16:04:23;;;;;;;3.00;2.33;;;2.90;96.30;;;;;;4878733;29;20186;-78
2021/12/18 16:06:49;;;;;;;2.70;2.33;;;2.90;96.30;;;;;;4880487;29;20542;-78
2021/12/18 16:09:14;;;;;;;2.63;1.90;;;2.90;96.30;;;;;;4878855;29;20265;-78
2021/12/18 16:11:40;;;;;;;3.10;2.00;;;2.90;96.30;;;;;;4885287;29;20633;-78
2021/12/18 16:14:05;;;;;;;3.20;2.23;;;2.90;96.30;;;;;;4896951;29;20200;-78
2021/12/18 16:16:31;;;;;;;2.37;2.17;;;2.90;96.30;;;;;;4877256;29;20189;-79
2021/12/18 16:18:56;;;;;;;3.63;2.33;;;2.90;96.30;;;;;;4879326;29;20192;-79
2021/12/18 16:21:22;;;;;;;2.37;2.17;;;2.90;96.30;;;;;;4886719;29;20258;-78
2021/12/18 16:23:47;;;;;;;3.43;2.37;;;2.90;96.30;;;;;;4898176;29;20637;-79
2021/12/18 16:26:13;;;;;;;2.67;2.47;;;2.90;96.30;;;;;;4878609;29;20466;-79
2021/12/18 16:28:39;;;;;;;3.83;2.50;;;3.00;96.30;;;;;;4895692;29;20193;-79
2021/12/18 16:31:05;;;;;;;3.73;2.37;;;2.90;96.30;;;;;;4892135;29;20208;-79
2021/12/18 16:33:35;;;;;;;6.63;2.33;;;3.00;96.30;;;;;;4898030;29;20295;-79
2021/12/18 16:36:02;;;;;;;3.40;2.67;;;3.00;96.30;;;;;;4899363;29;20162;-79
2021/12/18 16:38:36;;;;;;;4.80;3.20;;;3.00;96.30;;;;;;4893443;29;20761;-81
2021/12/18 16:41:04;;;;;;;4.90;3.17;;;2.90;96.30;;;;;;4893159;29;20491;-79
2021/12/18 16:43:31;;;;;;;3.63;2.93;;;3.00;96.30;;;;;;4894791;29;20485;-80
2021/12/18 16:45:57;;;;;;;3.90;2.90;;;3.10;96.30;;;;;;4883254;29;20791;-81
2021/12/18 16:48:23;;;;;;;2.60;2.30;;;3.00;96.30;;;;;;4882411;29;20524;-80
2021/12/18 16:50:50;;;;;;;2.77;2.50;;;3.10;96.30;;;;;;4887451;29;20757;-80
2021/12/18 16:53:16;;;;;;;3.20;2.20;;;3.00;96.30;;;;;;4883839;29;20458;-80
2021/12/18 16:55:42;;;;;;;3.40;2.60;;;3.00;96.30;;;;;;4879724;29;20418;-80
2021/12/18 16:58:07;;;;;;;3.07;2.40;;;3.00;96.30;;;;;;4882695;29;20498;-80
2021/12/18 17:00:33;;;;;;;2.60;2.40;;;3.00;96.30;;;;;;4880361;29;20618;-79
2021/12/18 17:03:02;;;;;;;3.23;2.93;;;3.10;96.30;;;;;;4882213;29;20225;-79
2021/12/18 17:05:29;;;;;;;3.47;3.17;;;3.00;96.30;;;;;;4882941;29;20437;-78
2021/12/18 17:07:56;;;;;;;3.97;3.13;;;3.00;96.30;;;;;;4884989;29;20836;-79
2021/12/18 17:10:21;;;;;;;3.50;3.20;;;3.00;96.30;;;;;;4877494;29;20494;-80
2021/12/18 17:12:47;;;;;;;3.80;3.03;;;3.00;96.30;;;;;;4882632;29;20521;-81